sensor_id;sensor_type;location;lat;lon;timestamp;pressure;altitude;pressure_sealevel;temperature;humidity
54455;BME280;40364;52.270;10.546;2023-05-21T00:00:38;66786.44;;;-143.22;100.00
54455;BME280;40364;52.270;10.546;2023-05-21T00:03:07;66786.44;;;-143.22;100.00
54455;BME280;40364;52.270;10.546;2023-05-21T00:05:38;66786.44;;;-143.22;100.00
54455;BME280;40364;52.270;10.546;2023-05-21T00:08:06;66786.44;;;-143.22;100.00
54455;BME280;40364;52.270;10.546;2023-05-21T00:10:33;66786.44;;;-143.22;100.00
54455;BME280;40364;52.270;10.546;2023-05-21T00:13:00;66786.44;;;-143.22;100.00
54455;BME280;40364;52.270;10.546;2023-05-21T00:15:26;66786.44;;;-143.22;100.00
54455;BME280;40364;52.270;10.546;2023-05-21T00:17:53;66786.44;;;-143.22;100.00
54455;BME280;40364;52.270;10.546;2023-05-21T00:20:23;66786.44;;;-143.22;100.00
54455;BME280;40364;52.270;10.546;2023-05-21T00:22:49;66786.44;;;-143.22;100.00
54455;BME280;40364;52.270;10.546;2023-05-21T00:25:22;66786.44;;;-143.22;100.00
54455;BME280;40364;52.270;10.546;2023-05-21T00:27:49;66786.44;;;-143.22;100.00
54455;BME280;40364;52.270;10.546;2023-05-21T00:30:15;66786.44;;;-143.22;100.00
54455;BME280;40364;52.270;10.546;2023-05-21T00:32:47;66786.44;;;-143.22;100.00
54455;BME280;40364;52.270;10.546;2023-05-21T00:35:19;66786.44;;;-143.22;100.00
54455;BME280;40364;52.270;10.546;2023-05-21T00:37:49;66786.44;;;-143.22;100.00
54455;BME280;40364;52.270;10.546;2023-05-21T00:40:17;66786.44;;;-143.22;100.00
54455;BME280;40364;52.270;10.546;2023-05-21T00:42:45;66786.44;;;-143.22;100.00
54455;BME280;40364;52.270;10.546;2023-05-21T00:45:12;66786.44;;;-143.22;100.00
54455;BME280;40364;52.270;10.546;2023-05-21T00:47:43;66786.44;;;-143.22;100.00
54455;BME280;40364;52.270;10.546;2023-05-21T00:50:19;66786.44;;;-143.22;100.00
54455;BME280;40364;52.270;10.546;2023-05-21T00:52:50;66786.44;;;-143.22;100.00
54455;BME280;40364;52.270;10.546;2023-05-21T00:55:17;66786.44;;;-143.22;100.00
54455;BME280;40364;52.270;10.546;2023-05-21T00:57:46;66786.44;;;-143.22;100.00
54455;BME280;40364;52.270;10.546;2023-05-21T01:00:14;66786.44;;;-143.22;100.00
54455;BME280;40364;52.270;10.546;2023-05-21T01:02:45;66786.44;;;-143.22;100.00
54455;BME280;40364;52.270;10.546;2023-05-21T01:05:25;66786.44;;;-143.22;100.00
54455;BME280;40364;52.270;10.546;2023-05-21T01:07:52;66786.44;;;-143.22;100.00
54455;BME280;40364;52.270;10.546;2023-05-21T01:10:21;66786.44;;;-143.22;100.00
54455;BME280;40364;52.270;10.546;2023-05-21T01:12:54;66786.44;;;-143.22;100.00
54455;BME280;40364;52.270;10.546;2023-05-21T01:15:26;66786.44;;;-143.22;100.00
54455;BME280;40364;52.270;10.546;2023-05-21T01:17:54;66786.44;;;-143.22;100.00
54455;BME280;40364;52.270;10.546;2023-05-21T01:20:22;66786.44;;;-143.22;100.00
54455;BME280;40364;52.270;10.546;2023-05-21T01:22:52;66786.44;;;-143.22;100.00
54455;BME280;40364;52.270;10.546;2023-05-21T01:25:19;66786.44;;;-143.22;100.00
54455;BME280;40364;52.270;10.546;2023-05-21T01:27:47;66786.44;;;-143.22;100.00
54455;BME280;40364;52.270;10.546;2023-05-21T01:30:14;66786.44;;;-143.22;100.00
54455;BME280;40364;52.270;10.546;2023-05-21T01:32:54;66786.44;;;-143.22;100.00
54455;BME280;40364;52.270;10.546;2023-05-21T01:35:25;66786.44;;;-143.22;100.00
54455;BME280;40364;52.270;10.546;2023-05-21T01:38:00;66786.44;;;-143.22;100.00
54455;BME280;40364;52.270;10.546;2023-05-21T01:40:34;66786.44;;;-143.22;100.00
54455;BME280;40364;52.270;10.546;2023-05-21T01:43:05;66786.44;;;-143.22;100.00
54455;BME280;40364;52.270;10.546;2023-05-21T01:45:35;66786.44;;;-143.22;100.00
54455;BME280;40364;52.270;10.546;2023-05-21T01:48:08;66786.44;;;-143.22;100.00
54455;BME280;40364;52.270;10.546;2023-05-21T01:50:37;66786.44;;;-143.22;100.00
54455;BME280;40364;52.270;10.546;2023-05-21T01:53:07;66786.44;;;-143.22;100.00
54455;BME280;40364;52.270;10.546;2023-05-21T01:55:34;66786.44;;;-143.22;100.00
54455;BME280;40364;52.270;10.546;2023-05-21T01:58:03;66786.44;;;-143.22;100.00
54455;BME280;40364;52.270;10.546;2023-05-21T02:00:32;66786.44;;;-143.22;100.00
54455;BME280;40364;52.270;10.546;2023-05-21T02:03:06;66786.44;;;-143.22;100.00
54455;BME280;40364;52.270;10.546;2023-05-21T02:05:33;66786.44;;;-143.22;100.00
54455;BME280;40364;52.270;10.546;2023-05-21T02:08:00;66786.44;;;-143.22;100.00
54455;BME280;40364;52.270;10.546;2023-05-21T02:10:35;66786.44;;;-143.22;100.00
54455;BME280;40364;52.270;10.546;2023-05-21T02:13:01;66786.44;;;-143.22;100.00
54455;BME280;40364;52.270;10.546;2023-05-21T02:15:28;66786.44;;;-143.22;100.00
54455;BME280;40364;52.270;10.546;2023-05-21T02:17:59;66786.44;;;-143.22;100.00
54455;BME280;40364;52.270;10.546;2023-05-21T02:20:25;66786.44;;;-143.22;100.00
54455;BME280;40364;52.270;10.546;2023-05-21T02:22:55;66786.44;;;-143.22;100.00
54455;BME280;40364;52.270;10.546;2023-05-21T02:25:22;66786.44;;;-143.22;100.00
54455;BME280;40364;52.270;10.546;2023-05-21T02:27:50;66786.44;;;-143.22;100.00
54455;BME280;40364;52.270;10.546;2023-05-21T02:30:21;66786.44;;;-143.22;100.00
54455;BME280;40364;52.270;10.546;2023-05-21T02:32:48;66786.44;;;-143.22;100.00
54455;BME280;40364;52.270;10.546;2023-05-21T02:35:15;66786.44;;;-143.22;100.00
54455;BME280;40364;52.270;10.546;2023-05-21T02:37:43;66786.44;;;-143.22;100.00
54455;BME280;40364;52.270;10.546;2023-05-21T02:40:13;66786.44;;;-143.22;100.00
54455;BME280;40364;52.270;10.546;2023-05-21T02:42:42;66786.44;;;-143.22;100.00
54455;BME280;40364;52.270;10.546;2023-05-21T02:45:12;66786.44;;;-143.22;100.00
54455;BME280;40364;52.270;10.546;2023-05-21T02:47:42;66786.44;;;-143.22;100.00
54455;BME280;40364;52.270;10.546;2023-05-21T02:50:09;66786.44;;;-143.22;100.00
54455;BME280;40364;52.270;10.546;2023-05-21T02:52:35;66786.44;;;-143.22;100.00
54455;BME280;40364;52.270;10.546;2023-05-21T02:55:06;66786.44;;;-143.22;100.00
54455;BME280;40364;52.270;10.546;2023-05-21T02:57:33;66786.44;;;-143.22;100.00
54455;BME280;40364;52.270;10.546;2023-05-21T03:00:00;66786.44;;;-143.22;100.00
54455;BME280;40364;52.270;10.546;2023-05-21T03:02:30;66786.44;;;-143.22;100.00
54455;BME280;40364;52.270;10.546;2023-05-21T03:05:11;66786.44;;;-143.22;100.00
54455;BME280;40364;52.270;10.546;2023-05-21T03:07:37;66786.44;;;-143.22;100.00
54455;BME280;40364;52.270;10.546;2023-05-21T03:10:08;66786.44;;;-143.22;100.00
54455;BME280;40364;52.270;10.546;2023-05-21T03:12:39;66786.44;;;-143.22;100.00
54455;BME280;40364;52.270;10.546;2023-05-21T03:15:20;66786.44;;;-143.22;100.00
54455;BME280;40364;52.270;10.546;2023-05-21T03:17:49;66786.44;;;-143.22;100.00
54455;BME280;40364;52.270;10.546;2023-05-21T03:20:18;66786.44;;;-143.22;100.00
54455;BME280;40364;52.270;10.546;2023-05-21T03:22:45;66786.44;;;-143.22;100.00
54455;BME280;40364;52.270;10.546;2023-05-21T03:25:14;66786.44;;;-143.22;100.00
54455;BME280;40364;52.270;10.546;2023-05-21T03:27:43;66786.44;;;-143.22;100.00
54455;BME280;40364;52.270;10.546;2023-05-21T03:30:13;66786.44;;;-143.22;100.00
54455;BME280;40364;52.270;10.546;2023-05-21T03:32:43;66786.44;;;-143.22;100.00
54455;BME280;40364;52.270;10.546;2023-05-21T03:35:15;66786.44;;;-143.22;100.00
54455;BME280;40364;52.270;10.546;2023-05-21T03:37:42;66786.44;;;-143.22;100.00
54455;BME280;40364;52.270;10.546;2023-05-21T03:40:14;66786.44;;;-143.22;100.00
54455;BME280;40364;52.270;10.546;2023-05-21T03:42:48;66786.44;;;-143.22;100.00
54455;BME280;40364;52.270;10.546;2023-05-21T03:45:15;66786.44;;;-143.22;100.00
54455;BME280;40364;52.270;10.546;2023-05-21T03:47:43;66786.44;;;-143.22;100.00
54455;BME280;40364;52.270;10.546;2023-05-21T03:50:13;66786.44;;;-143.22;100.00
54455;BME280;40364;52.270;10.546;2023-05-21T03:52:41;66786.44;;;-143.22;100.00
54455;BME280;40364;52.270;10.546;2023-05-21T03:55:08;66786.44;;;-143.22;100.00
54455;BME280;40364;52.270;10.546;2023-05-21T03:57:38;66786.44;;;-143.22;100.00
54455;BME280;40364;52.270;10.546;2023-05-21T04:00:08;66786.44;;;-143.22;100.00
54455;BME280;40364;52.270;10.546;2023-05-21T04:02:38;66786.44;;;-143.22;100.00
54455;BME280;40364;52.270;10.546;2023-05-21T04:05:06;66786.44;;;-143.22;100.00
54455;BME280;40364;52.270;10.546;2023-05-21T04:07:33;66786.44;;;-143.22;100.00
54455;BME280;40364;52.270;10.546;2023-05-21T04:10:05;66786.44;;;-143.22;100.00
54455;BME280;40364;52.270;10.546;2023-05-21T04:12:31;66786.44;;;-143.22;100.00
54455;BME280;40364;52.270;10.546;2023-05-21T04:14:58;66786.44;;;-143.22;100.00
54455;BME280;40364;52.270;10.546;2023-05-21T04:17:26;66786.44;;;-143.22;100.00
54455;BME280;40364;52.270;10.546;2023-05-21T04:19:58;66786.44;;;-143.22;100.00
54455;BME280;40364;52.270;10.546;2023-05-21T04:22:28;66786.44;;;-143.22;100.00
54455;BME280;40364;52.270;10.546;2023-05-21T04:24:54;66786.44;;;-143.22;100.00
54455;BME280;40364;52.270;10.546;2023-05-21T04:27:25;66786.44;;;-143.22;100.00
54455;BME280;40364;52.270;10.546;2023-05-21T04:29:51;66786.44;;;-143.22;100.00
54455;BME280;40364;52.270;10.546;2023-05-21T04:32:22;66786.44;;;-143.22;100.00
54455;BME280;40364;52.270;10.546;2023-05-21T04:34:52;66786.44;;;-143.22;100.00
54455;BME280;40364;52.270;10.546;2023-05-21T04:37:18;66786.44;;;-143.22;100.00
54455;BME280;40364;52.270;10.546;2023-05-21T04:39:50;66786.44;;;-143.22;100.00
54455;BME280;40364;52.270;10.546;2023-05-21T04:42:22;66786.44;;;-143.22;100.00
54455;BME280;40364;52.270;10.546;2023-05-21T04:44:50;66786.44;;;-143.22;100.00
54455;BME280;40364;52.270;10.546;2023-05-21T04:47:24;66786.44;;;-143.22;100.00
54455;BME280;40364;52.270;10.546;2023-05-21T04:49:54;66786.44;;;-143.22;100.00
54455;BME280;40364;52.270;10.546;2023-05-21T04:52:24;66786.44;;;-143.22;100.00
54455;BME280;40364;52.270;10.546;2023-05-21T04:54:54;66786.44;;;-143.22;100.00
54455;BME280;40364;52.270;10.546;2023-05-21T04:57:21;66786.44;;;-143.22;100.00
54455;BME280;40364;52.270;10.546;2023-05-21T04:59:56;66786.44;;;-143.22;100.00
54455;BME280;40364;52.270;10.546;2023-05-21T05:02:37;66786.44;;;-143.22;100.00
54455;BME280;40364;52.270;10.546;2023-05-21T05:05:05;66786.44;;;-143.22;100.00
54455;BME280;40364;52.270;10.546;2023-05-21T05:07:31;66786.44;;;-143.22;100.00
54455;BME280;40364;52.270;10.546;2023-05-21T05:09:58;66786.44;;;-143.22;100.00
54455;BME280;40364;52.270;10.546;2023-05-21T05:12:25;66786.44;;;-143.22;100.00
54455;BME280;40364;52.270;10.546;2023-05-21T05:14:54;66786.44;;;-143.22;100.00
54455;BME280;40364;52.270;10.546;2023-05-21T05:17:26;66786.44;;;-143.22;100.00
54455;BME280;40364;52.270;10.546;2023-05-21T05:20:07;66786.44;;;-143.22;100.00
54455;BME280;40364;52.270;10.546;2023-05-21T05:22:44;66786.44;;;-143.22;100.00
54455;BME280;40364;52.270;10.546;2023-05-21T05:25:14;66786.44;;;-143.22;100.00
54455;BME280;40364;52.270;10.546;2023-05-21T05:27:42;66786.44;;;-143.22;100.00
54455;BME280;40364;52.270;10.546;2023-05-21T05:30:12;66786.44;;;-143.22;100.00
54455;BME280;40364;52.270;10.546;2023-05-21T05:32:42;66786.44;;;-143.22;100.00
54455;BME280;40364;52.270;10.546;2023-05-21T05:35:09;66786.44;;;-143.22;100.00
54455;BME280;40364;52.270;10.546;2023-05-21T05:37:35;66786.44;;;-143.22;100.00
54455;BME280;40364;52.270;10.546;2023-05-21T05:40:06;66786.44;;;-143.22;100.00
54455;BME280;40364;52.270;10.546;2023-05-21T05:42:38;66786.44;;;-143.22;100.00
54455;BME280;40364;52.270;10.546;2023-05-21T05:45:14;66786.44;;;-143.22;100.00
54455;BME280;40364;52.270;10.546;2023-05-21T05:47:41;66786.44;;;-143.22;100.00
54455;BME280;40364;52.270;10.546;2023-05-21T05:50:10;66786.44;;;-143.22;100.00
54455;BME280;40364;52.270;10.546;2023-05-21T05:52:38;66786.44;;;-143.22;100.00
54455;BME280;40364;52.270;10.546;2023-05-21T05:55:10;66786.44;;;-143.22;100.00
54455;BME280;40364;52.270;10.546;2023-05-21T05:57:45;66786.44;;;-143.22;100.00
54455;BME280;40364;52.270;10.546;2023-05-21T06:00:34;66786.44;;;-143.22;100.00
54455;BME280;40364;52.270;10.546;2023-05-21T06:03:21;66786.44;;;-143.22;100.00
54455;BME280;40364;52.270;10.546;2023-05-21T06:05:54;66786.44;;;-143.22;100.00
54455;BME280;40364;52.270;10.546;2023-05-21T06:08:24;66786.44;;;-143.22;100.00
54455;BME280;40364;52.270;10.546;2023-05-21T06:11:14;66786.44;;;-143.22;100.00
54455;BME280;40364;52.270;10.546;2023-05-21T06:13:51;66786.44;;;-143.22;100.00
54455;BME280;40364;52.270;10.546;2023-05-21T06:16:30;66786.44;;;-143.22;100.00
54455;BME280;40364;52.270;10.546;2023-05-21T06:19:01;66786.44;;;-143.22;100.00
54455;BME280;40364;52.270;10.546;2023-05-21T06:21:30;66786.44;;;-143.22;100.00
54455;BME280;40364;52.270;10.546;2023-05-21T06:24:14;66786.44;;;-143.22;100.00
54455;BME280;40364;52.270;10.546;2023-05-21T06:26:43;66786.44;;;-143.22;100.00
54455;BME280;40364;52.270;10.546;2023-05-21T06:29:10;66786.44;;;-143.22;100.00
54455;BME280;40364;52.270;10.546;2023-05-21T06:31:41;66786.44;;;-143.22;100.00
54455;BME280;40364;52.270;10.546;2023-05-21T06:34:08;66786.44;;;-143.22;100.00
54455;BME280;40364;52.270;10.546;2023-05-21T06:36:42;66786.44;;;-143.22;100.00
54455;BME280;40364;52.270;10.546;2023-05-21T06:39:08;66786.44;;;-143.22;100.00
54455;BME280;40364;52.270;10.546;2023-05-21T06:41:37;66786.44;;;-143.22;100.00
54455;BME280;40364;52.270;10.546;2023-05-21T06:44:06;66786.44;;;-143.22;100.00
54455;BME280;40364;52.270;10.546;2023-05-21T06:46:35;66786.44;;;-143.22;100.00
54455;BME280;40364;52.270;10.546;2023-05-21T06:49:17;66786.44;;;-143.22;100.00
54455;BME280;40364;52.270;10.546;2023-05-21T06:51:48;66786.44;;;-143.22;100.00
54455;BME280;40364;52.270;10.546;2023-05-21T06:54:15;66786.44;;;-143.22;100.00
54455;BME280;40364;52.270;10.546;2023-05-21T06:56:43;66786.44;;;-143.22;100.00
54455;BME280;40364;52.270;10.546;2023-05-21T06:59:10;66786.44;;;-143.22;100.00
54455;BME280;40364;52.270;10.546;2023-05-21T07:01:37;66786.44;;;-143.22;100.00
54455;BME280;40364;52.270;10.546;2023-05-21T07:04:08;66786.44;;;-143.22;100.00
54455;BME280;40364;52.270;10.546;2023-05-21T07:06:35;66786.44;;;-143.22;100.00
54455;BME280;40364;52.270;10.546;2023-05-21T07:09:02;66786.44;;;-143.22;100.00
54455;BME280;40364;52.270;10.546;2023-05-21T07:11:29;66786.44;;;-143.22;100.00
54455;BME280;40364;52.270;10.546;2023-05-21T07:14:01;66786.44;;;-143.22;100.00
54455;BME280;40364;52.270;10.546;2023-05-21T07:16:34;66786.44;;;-143.22;100.00
54455;BME280;40364;52.270;10.546;2023-05-21T07:19:14;66786.44;;;-143.22;100.00
54455;BME280;40364;52.270;10.546;2023-05-21T07:21:45;66786.44;;;-143.22;100.00
54455;BME280;40364;52.270;10.546;2023-05-21T07:26:55;66786.44;;;-143.22;100.00
54455;BME280;40364;52.270;10.546;2023-05-21T07:29:21;66786.44;;;-143.22;100.00
54455;BME280;40364;52.270;10.546;2023-05-21T07:31:48;66786.44;;;-143.22;100.00
54455;BME280;40364;52.270;10.546;2023-05-21T07:34:16;66786.44;;;-143.22;100.00
54455;BME280;40364;52.270;10.546;2023-05-21T07:36:42;66786.44;;;-143.22;100.00
54455;BME280;40364;52.270;10.546;2023-05-21T07:39:09;66786.44;;;-143.22;100.00
54455;BME280;40364;52.270;10.546;2023-05-21T07:41:36;66786.44;;;-143.22;100.00
54455;BME280;40364;52.270;10.546;2023-05-21T07:44:02;66786.44;;;-143.22;100.00
54455;BME280;40364;52.270;10.546;2023-05-21T07:46:29;66786.44;;;-143.22;100.00
54455;BME280;40364;52.270;10.546;2023-05-21T07:48:56;66786.44;;;-143.22;100.00
54455;BME280;40364;52.270;10.546;2023-05-21T07:51:24;66786.44;;;-143.22;100.00
54455;BME280;40364;52.270;10.546;2023-05-21T07:53:50;66786.44;;;-143.22;100.00
54455;BME280;40364;52.270;10.546;2023-05-21T07:56:17;66786.44;;;-143.22;100.00
54455;BME280;40364;52.270;10.546;2023-05-21T07:58:44;66786.44;;;-143.22;100.00
54455;BME280;40364;52.270;10.546;2023-05-21T08:01:11;66786.44;;;-143.22;100.00
54455;BME280;40364;52.270;10.546;2023-05-21T08:03:38;66786.44;;;-143.22;100.00
54455;BME280;40364;52.270;10.546;2023-05-21T08:06:04;66786.44;;;-143.22;100.00
54455;BME280;40364;52.270;10.546;2023-05-21T08:08:33;66786.44;;;-143.22;100.00
54455;BME280;40364;52.270;10.546;2023-05-21T08:10:59;66786.44;;;-143.22;100.00
54455;BME280;40364;52.270;10.546;2023-05-21T08:13:26;66786.44;;;-143.22;100.00
54455;BME280;40364;52.270;10.546;2023-05-21T08:15:53;66786.44;;;-143.22;100.00
54455;BME280;40364;52.270;10.546;2023-05-21T08:18:19;66786.44;;;-143.22;100.00
54455;BME280;40364;52.270;10.546;2023-05-21T08:20:47;66786.44;;;-143.22;100.00
54455;BME280;40364;52.270;10.546;2023-05-21T08:23:14;66786.44;;;-143.22;100.00
54455;BME280;40364;52.270;10.546;2023-05-21T08:25:42;66786.44;;;-143.22;100.00
54455;BME280;40364;52.270;10.546;2023-05-21T08:28:09;66786.44;;;-143.22;100.00
54455;BME280;40364;52.270;10.546;2023-05-21T08:30:36;66786.44;;;-143.22;100.00
54455;BME280;40364;52.270;10.546;2023-05-21T08:33:02;66786.44;;;-143.22;100.00
54455;BME280;40364;52.270;10.546;2023-05-21T08:35:29;66786.44;;;-143.22;100.00
54455;BME280;40364;52.270;10.546;2023-05-21T08:37:56;66786.44;;;-143.22;100.00
54455;BME280;40364;52.270;10.546;2023-05-21T08:40:23;66786.44;;;-143.22;100.00
54455;BME280;40364;52.270;10.546;2023-05-21T08:42:51;66786.44;;;-143.22;100.00
54455;BME280;40364;52.270;10.546;2023-05-21T08:45:19;66786.44;;;-143.22;100.00
54455;BME280;40364;52.270;10.546;2023-05-21T08:47:47;66786.44;;;-143.22;100.00
54455;BME280;40364;52.270;10.546;2023-05-21T08:50:16;66786.44;;;-143.22;100.00
54455;BME280;40364;52.270;10.546;2023-05-21T08:52:44;66786.44;;;-143.22;100.00
54455;BME280;40364;52.270;10.546;2023-05-21T08:55:11;66786.44;;;-143.22;100.00
54455;BME280;40364;52.270;10.546;2023-05-21T08:57:41;66786.44;;;-143.22;100.00
54455;BME280;40364;52.270;10.546;2023-05-21T09:00:10;66786.44;;;-143.22;100.00
54455;BME280;40364;52.270;10.546;2023-05-21T09:02:37;66786.44;;;-143.22;100.00
54455;BME280;40364;52.270;10.546;2023-05-21T09:05:08;66786.44;;;-143.22;100.00
54455;BME280;40364;52.270;10.546;2023-05-21T09:07:46;66786.44;;;-143.22;100.00
54455;BME280;40364;52.270;10.546;2023-05-21T09:10:13;66786.44;;;-143.22;100.00
54455;BME280;40364;52.270;10.546;2023-05-21T09:12:40;66786.44;;;-143.22;100.00
54455;BME280;40364;52.270;10.546;2023-05-21T09:15:09;66786.44;;;-143.22;100.00
54455;BME280;40364;52.270;10.546;2023-05-21T09:17:36;66786.44;;;-143.22;100.00
54455;BME280;40364;52.270;10.546;2023-05-21T09:20:07;66786.44;;;-143.22;100.00
54455;BME280;40364;52.270;10.546;2023-05-21T09:22:35;66786.44;;;-143.22;100.00
54455;BME280;40364;52.270;10.546;2023-05-21T09:25:04;66786.44;;;-143.22;100.00
54455;BME280;40364;52.270;10.546;2023-05-21T09:27:32;66786.44;;;-143.22;100.00
54455;BME280;40364;52.270;10.546;2023-05-21T09:29:58;66786.44;;;-143.22;100.00
54455;BME280;40364;52.270;10.546;2023-05-21T09:32:26;66786.44;;;-143.22;100.00
54455;BME280;40364;52.270;10.546;2023-05-21T09:34:53;66786.44;;;-143.22;100.00
54455;BME280;40364;52.270;10.546;2023-05-21T09:37:21;66786.44;;;-143.22;100.00
54455;BME280;40364;52.270;10.546;2023-05-21T09:39:50;66786.44;;;-143.22;100.00
54455;BME280;40364;52.270;10.546;2023-05-21T09:42:19;66786.44;;;-143.22;100.00
54455;BME280;40364;52.270;10.546;2023-05-21T09:44:46;66786.44;;;-143.22;100.00
54455;BME280;40364;52.270;10.546;2023-05-21T09:47:18;66786.44;;;-143.22;100.00
54455;BME280;40364;52.270;10.546;2023-05-21T09:49:48;66786.44;;;-143.22;100.00
54455;BME280;40364;52.270;10.546;2023-05-21T09:52:22;66786.44;;;-143.22;100.00
54455;BME280;40364;52.270;10.546;2023-05-21T09:54:50;66786.44;;;-143.22;100.00
54455;BME280;40364;52.270;10.546;2023-05-21T09:57:22;66786.44;;;-143.22;100.00
54455;BME280;40364;52.270;10.546;2023-05-21T09:59:49;66786.44;;;-143.22;100.00
54455;BME280;40364;52.270;10.546;2023-05-21T10:02:18;66786.44;;;-143.22;100.00
54455;BME280;40364;52.270;10.546;2023-05-21T10:04:48;66786.44;;;-143.22;100.00
54455;BME280;40364;52.270;10.546;2023-05-21T10:07:16;66786.44;;;-143.22;100.00
54455;BME280;40364;52.270;10.546;2023-05-21T10:09:46;66786.44;;;-143.22;100.00
54455;BME280;40364;52.270;10.546;2023-05-21T10:12:13;66786.44;;;-143.22;100.00
54455;BME280;40364;52.270;10.546;2023-05-21T10:14:45;66786.44;;;-143.22;100.00
54455;BME280;40364;52.270;10.546;2023-05-21T10:17:14;66786.44;;;-143.22;100.00
54455;BME280;40364;52.270;10.546;2023-05-21T10:19:42;66786.44;;;-143.22;100.00
54455;BME280;40364;52.270;10.546;2023-05-21T10:22:11;66786.44;;;-143.22;100.00
54455;BME280;40364;52.270;10.546;2023-05-21T10:24:39;66786.44;;;-143.22;100.00
54455;BME280;40364;52.270;10.546;2023-05-21T10:27:06;66786.44;;;-143.22;100.00
54455;BME280;40364;52.270;10.546;2023-05-21T10:29:32;66786.44;;;-143.22;100.00
54455;BME280;40364;52.270;10.546;2023-05-21T10:32:01;66786.44;;;-143.22;100.00
54455;BME280;40364;52.270;10.546;2023-05-21T10:34:28;66786.44;;;-143.22;100.00
54455;BME280;40364;52.270;10.546;2023-05-21T10:36:57;66786.44;;;-143.22;100.00
54455;BME280;40364;52.270;10.546;2023-05-21T10:39:28;66786.44;;;-143.22;100.00
54455;BME280;40364;52.270;10.546;2023-05-21T10:42:00;66786.44;;;-143.22;100.00
54455;BME280;40364;52.270;10.546;2023-05-21T10:44:39;66786.44;;;-143.22;100.00
54455;BME280;40364;52.270;10.546;2023-05-21T10:47:36;66786.44;;;-143.22;100.00
54455;BME280;40364;52.270;10.546;2023-05-21T10:50:37;66786.44;;;-143.22;100.00
54455;BME280;40364;52.270;10.546;2023-05-21T10:53:13;66786.44;;;-143.22;100.00
54455;BME280;40364;52.270;10.546;2023-05-21T10:55:55;66786.44;;;-143.22;100.00
54455;BME280;40364;52.270;10.546;2023-05-21T10:58:47;66786.44;;;-143.22;100.00
54455;BME280;40364;52.270;10.546;2023-05-21T11:01:16;66786.44;;;-143.22;100.00
54455;BME280;40364;52.270;10.546;2023-05-21T11:03:45;66786.44;;;-143.22;100.00
54455;BME280;40364;52.270;10.546;2023-05-21T11:06:21;66786.44;;;-143.22;100.00
54455;BME280;40364;52.270;10.546;2023-05-21T11:08:48;66786.44;;;-143.22;100.00
54455;BME280;40364;52.270;10.546;2023-05-21T11:14:31;100747.47;;;39.20;28.29
54455;BME280;40364;52.270;10.546;2023-05-21T11:17:09;100751.66;;;38.78;28.71
54455;BME280;40364;52.270;10.546;2023-05-21T11:19:40;100740.19;;;38.11;29.94
54455;BME280;40364;52.270;10.546;2023-05-21T11:22:08;100733.63;;;38.16;29.33
54455;BME280;40364;52.270;10.546;2023-05-21T11:24:39;100733.91;;;36.58;30.81
54455;BME280;40364;52.270;10.546;2023-05-21T11:27:07;100736.50;;;38.21;29.15
54455;BME280;40364;52.270;10.546;2023-05-21T11:29:43;100721.34;;;38.51;28.72
54455;BME280;40364;52.270;10.546;2023-05-21T11:32:12;100729.00;;;39.47;28.23
54455;BME280;40364;52.270;10.546;2023-05-21T11:34:41;100723.06;;;38.82;28.24
54455;BME280;40364;52.270;10.546;2023-05-21T11:37:28;100709.97;;;40.49;26.32
54455;BME280;40364;52.270;10.546;2023-05-21T11:39:57;100713.56;;;40.12;26.58
54455;BME280;40364;52.270;10.546;2023-05-21T11:42:28;100720.34;;;39.71;26.16
54455;BME280;40364;52.270;10.546;2023-05-21T11:44:57;100715.47;;;39.50;27.08
54455;BME280;40364;52.270;10.546;2023-05-21T11:47:24;100714.00;;;39.32;26.40
54455;BME280;40364;52.270;10.546;2023-05-21T11:49:51;100698.91;;;40.18;25.56
54455;BME280;40364;52.270;10.546;2023-05-21T11:52:18;100709.69;;;38.51;27.34
54455;BME280;40364;52.270;10.546;2023-05-21T11:54:45;100710.88;;;38.03;27.59
54455;BME280;40364;52.270;10.546;2023-05-21T11:57:15;100707.53;;;39.45;25.94
54455;BME280;40364;52.270;10.546;2023-05-21T11:59:43;100714.19;;;39.45;25.96
54455;BME280;40364;52.270;10.546;2023-05-21T12:02:14;100699.59;;;40.05;25.69
54455;BME280;40364;52.270;10.546;2023-05-21T12:04:42;100698.63;;;38.44;25.61
54455;BME280;40364;52.270;10.546;2023-05-21T12:07:09;100695.34;;;41.43;24.35
54455;BME280;40364;52.270;10.546;2023-05-21T12:09:38;100698.81;;;40.04;24.90
54455;BME280;40364;52.270;10.546;2023-05-21T12:12:07;100689.25;;;40.28;24.57
54455;BME280;40364;52.270;10.546;2023-05-21T12:14:36;100691.72;;;41.37;23.31
54455;BME280;40364;52.270;10.546;2023-05-21T12:17:04;100693.59;;;41.21;23.94
54455;BME280;40364;52.270;10.546;2023-05-21T12:19:32;100685.31;;;41.38;24.18
54455;BME280;40364;52.270;10.546;2023-05-21T12:22:01;100685.88;;;40.86;24.36
54455;BME280;40364;52.270;10.546;2023-05-21T12:24:28;100688.66;;;42.46;22.54
54455;BME280;40364;52.270;10.546;2023-05-21T12:26:56;100685.56;;;42.25;22.28
54455;BME280;40364;52.270;10.546;2023-05-21T12:29:24;100673.88;;;42.25;21.87
54455;BME280;40364;52.270;10.546;2023-05-21T12:31:51;100682.91;;;42.88;20.79
54455;BME280;40364;52.270;10.546;2023-05-21T12:34:40;100690.34;;;42.89;20.88
54455;BME280;40364;52.270;10.546;2023-05-21T12:37:10;100680.63;;;42.33;19.65
54455;BME280;40364;52.270;10.546;2023-05-21T12:39:41;100674.09;;;42.27;20.64
54455;BME280;40364;52.270;10.546;2023-05-21T12:42:09;100681.97;;;42.32;19.61